Terminal Aerodrome Forecast
Issued by NWS

Home | Current Version | Previous Version | Graphics & Text | Print | Product List | Glossary On
Versions: 1 2 3 4 5 6 7 8 9 10 11 12 13 14 15 16 17
000
FTUS43 KGRB 291100
TAFAUW
TAF
KAUW 291124Z 2912/3012 27010G17KT P6SM BKN025 OVC040
     FM291500 30010KT P6SM BKN025 OVC040
     FM300000 28003KT P6SM SCT015 BKN035=

USA.gov is the U.S. government's official web portal to all federal, state and local government web resources and services.